Pagina principale
METAR-TAF:

METAR-TAF

Aeroporti :

Monte Malanotte

Prato Nevoso, Italia

latitudine: 44-15N, longitudine: 007-48E, altezza: 1741 m

Osservazione

Il bollettino è stato emesso 29 minuti fa, alle 15:55 UTC
Vento 7 kt da nord-est
Temperature 27°C
Umidità 84%
Pressione 1017 hPa
Visibilità 10 km o più
Poco nuvoloso ad un'altezza di 1200 ft, Cumulo congesto.

METAR: LIMY 191555Z 04007KT 9999 FEW012TCU 27/24 Q1017 RMK BKN SCT070 VAL FOSCHIA VIS MIN 9999

Ora: 18:24 (16:24 UTC)


TAF: mancante

Osservazioni e previsioni meteorologiche di più di 4000 aeroporti (messaggi METAR e TAF).

Le stazioni disponibili sono rappresentate dai dischi gialli e rossi sulla carta.

Puntare il mouse per vedere il nome della stazione.

Clicca sopra per visualizzare le osservazioni e previsioni meteorologiche.

Per cambiare la mappa : fare clic sui pulsanti verdi con una croce nera per ingrandire, il pulsante verde con un trattino per diminuire, o sulla freccia verde per le mappe adiacenti.


METAR-TAF: